sensor_id;sensor_type;location;lat;lon;timestamp;P1;durP1;ratioP1;P2;durP2;ratioP2
34064;SDS011;20339;49.754;20.158;2024-03-02T00:01:26;21.60;;;9.90;;
34064;SDS011;20339;49.754;20.158;2024-03-02T00:03:57;12.90;;;7.30;;
34064;SDS011;20339;49.754;20.158;2024-03-02T00:06:32;11.60;;;6.40;;
34064;SDS011;20339;49.754;20.158;2024-03-02T00:09:06;13.30;;;7.60;;
34064;SDS011;20339;49.754;20.158;2024-03-02T00:11:40;14.00;;;6.90;;
34064;SDS011;20339;49.754;20.158;2024-03-02T00:14:12;14.50;;;7.70;;
34064;SDS011;20339;49.754;20.158;2024-03-02T00:16:43;14.20;;;6.90;;
34064;SDS011;20339;49.754;20.158;2024-03-02T00:19:19;12.30;;;6.20;;
34064;SDS011;20339;49.754;20.158;2024-03-02T00:21:54;11.40;;;6.50;;
34064;SDS011;20339;49.754;20.158;2024-03-02T00:24:27;12.50;;;7.70;;
34064;SDS011;20339;49.754;20.158;2024-03-02T00:27:04;15.60;;;7.80;;
34064;SDS011;20339;49.754;20.158;2024-03-02T00:29:39;14.70;;;6.60;;
34064;SDS011;20339;49.754;20.158;2024-03-02T00:32:12;10.40;;;6.20;;
34064;SDS011;20339;49.754;20.158;2024-03-02T00:34:47;11.30;;;5.60;;
34064;SDS011;20339;49.754;20.158;2024-03-02T00:37:22;11.40;;;5.80;;
34064;SDS011;20339;49.754;20.158;2024-03-02T00:39:58;13.60;;;5.90;;
34064;SDS011;20339;49.754;20.158;2024-03-02T00:42:33;10.80;;;5.60;;
34064;SDS011;20339;49.754;20.158;2024-03-02T00:45:07;8.40;;;4.40;;
34064;SDS011;20339;49.754;20.158;2024-03-02T00:47:42;8.40;;;4.20;;
34064;SDS011;20339;49.754;20.158;2024-03-02T00:50:14;13.80;;;6.30;;
34064;SDS011;20339;49.754;20.158;2024-03-02T00:52:53;10.70;;;6.30;;
34064;SDS011;20339;49.754;20.158;2024-03-02T00:55:28;9.80;;;5.80;;
34064;SDS011;20339;49.754;20.158;2024-03-02T01:00:35;10.30;;;6.10;;
34064;SDS011;20339;49.754;20.158;2024-03-02T01:03:09;10.50;;;5.40;;
34064;SDS011;20339;49.754;20.158;2024-03-02T01:05:45;8.70;;;5.00;;
34064;SDS011;20339;49.754;20.158;2024-03-02T01:08:18;10.20;;;4.60;;
34064;SDS011;20339;49.754;20.158;2024-03-02T01:10:54;8.20;;;5.30;;
34064;SDS011;20339;49.754;20.158;2024-03-02T01:13:30;9.90;;;6.20;;
34064;SDS011;20339;49.754;20.158;2024-03-02T01:16:01;9.60;;;5.00;;
34064;SDS011;20339;49.754;20.158;2024-03-02T01:18:35;8.40;;;4.80;;
34064;SDS011;20339;49.754;20.158;2024-03-02T01:21:09;9.80;;;5.20;;
34064;SDS011;20339;49.754;20.158;2024-03-02T01:23:44;8.70;;;5.40;;
34064;SDS011;20339;49.754;20.158;2024-03-02T01:26:17;10.30;;;5.20;;
34064;SDS011;20339;49.754;20.158;2024-03-02T01:28:53;9.90;;;5.20;;
34064;SDS011;20339;49.754;20.158;2024-03-02T01:31:28;10.30;;;4.30;;
34064;SDS011;20339;49.754;20.158;2024-03-02T01:34:04;9.00;;;5.30;;
34064;SDS011;20339;49.754;20.158;2024-03-02T01:36:38;9.50;;;5.40;;
34064;SDS011;20339;49.754;20.158;2024-03-02T01:39:18;11.80;;;5.80;;
34064;SDS011;20339;49.754;20.158;2024-03-02T01:41:54;12.60;;;6.20;;
34064;SDS011;20339;49.754;20.158;2024-03-02T01:44:26;9.90;;;4.90;;
34064;SDS011;20339;49.754;20.158;2024-03-02T01:46:59;10.00;;;5.10;;
34064;SDS011;20339;49.754;20.158;2024-03-02T01:49:35;13.10;;;6.40;;
34064;SDS011;20339;49.754;20.158;2024-03-02T01:52:12;11.20;;;6.30;;
34064;SDS011;20339;49.754;20.158;2024-03-02T01:54:47;11.00;;;6.40;;
34064;SDS011;20339;49.754;20.158;2024-03-02T01:57:19;11.30;;;5.20;;
34064;SDS011;20339;49.754;20.158;2024-03-02T01:59:53;8.50;;;4.80;;
34064;SDS011;20339;49.754;20.158;2024-03-02T02:02:27;12.70;;;6.50;;
34064;SDS011;20339;49.754;20.158;2024-03-02T02:04:59;16.10;;;7.40;;
34064;SDS011;20339;49.754;20.158;2024-03-02T02:07:32;11.50;;;5.50;;
34064;SDS011;20339;49.754;20.158;2024-03-02T02:10:06;11.70;;;5.20;;
34064;SDS011;20339;49.754;20.158;2024-03-02T02:12:44;11.20;;;5.30;;
34064;SDS011;20339;49.754;20.158;2024-03-02T02:15:28;11.00;;;5.90;;
34064;SDS011;20339;49.754;20.158;2024-03-02T02:18:00;12.80;;;7.20;;
34064;SDS011;20339;49.754;20.158;2024-03-02T02:20:34;10.90;;;6.00;;
34064;SDS011;20339;49.754;20.158;2024-03-02T02:23:10;10.00;;;5.20;;
34064;SDS011;20339;49.754;20.158;2024-03-02T02:25:45;9.70;;;5.50;;
34064;SDS011;20339;49.754;20.158;2024-03-02T02:28:16;11.80;;;5.00;;
34064;SDS011;20339;49.754;20.158;2024-03-02T02:30:47;8.50;;;4.90;;
34064;SDS011;20339;49.754;20.158;2024-03-02T02:33:26;10.80;;;5.80;;
34064;SDS011;20339;49.754;20.158;2024-03-02T02:35:59;12.00;;;5.40;;
34064;SDS011;20339;49.754;20.158;2024-03-02T02:38:31;12.00;;;5.70;;
34064;SDS011;20339;49.754;20.158;2024-03-02T02:41:06;13.20;;;5.70;;
34064;SDS011;20339;49.754;20.158;2024-03-02T02:43:45;11.90;;;5.70;;
34064;SDS011;20339;49.754;20.158;2024-03-02T02:46:21;12.30;;;5.00;;
34064;SDS011;20339;49.754;20.158;2024-03-02T02:48:53;15.20;;;6.60;;
34064;SDS011;20339;49.754;20.158;2024-03-02T02:51:28;13.70;;;6.80;;
34064;SDS011;20339;49.754;20.158;2024-03-02T02:54:02;10.30;;;6.20;;
34064;SDS011;20339;49.754;20.158;2024-03-02T02:56:33;11.10;;;5.40;;
34064;SDS011;20339;49.754;20.158;2024-03-02T02:59:04;8.20;;;5.10;;
34064;SDS011;20339;49.754;20.158;2024-03-02T03:01:36;8.00;;;5.10;;
34064;SDS011;20339;49.754;20.158;2024-03-02T03:04:09;11.40;;;6.10;;
34064;SDS011;20339;49.754;20.158;2024-03-02T03:06:45;11.40;;;6.40;;
34064;SDS011;20339;49.754;20.158;2024-03-02T03:09:17;11.60;;;6.40;;
34064;SDS011;20339;49.754;20.158;2024-03-02T03:11:53;11.40;;;5.90;;
34064;SDS011;20339;49.754;20.158;2024-03-02T03:14:25;13.00;;;6.70;;
34064;SDS011;20339;49.754;20.158;2024-03-02T03:16:59;11.70;;;6.30;;
34064;SDS011;20339;49.754;20.158;2024-03-02T03:19:31;10.30;;;6.10;;
34064;SDS011;20339;49.754;20.158;2024-03-02T03:22:07;16.70;;;7.70;;
34064;SDS011;20339;49.754;20.158;2024-03-02T03:24:38;10.70;;;5.70;;
34064;SDS011;20339;49.754;20.158;2024-03-02T03:27:21;12.40;;;5.70;;
34064;SDS011;20339;49.754;20.158;2024-03-02T03:29:52;12.40;;;5.30;;
34064;SDS011;20339;49.754;20.158;2024-03-02T03:32:26;11.80;;;6.40;;
34064;SDS011;20339;49.754;20.158;2024-03-02T03:34:57;11.30;;;6.30;;
34064;SDS011;20339;49.754;20.158;2024-03-02T03:37:30;12.10;;;7.10;;
34064;SDS011;20339;49.754;20.158;2024-03-02T03:40:02;8.20;;;5.20;;
34064;SDS011;20339;49.754;20.158;2024-03-02T03:42:38;11.40;;;5.60;;
34064;SDS011;20339;49.754;20.158;2024-03-02T03:45:10;13.90;;;6.30;;
34064;SDS011;20339;49.754;20.158;2024-03-02T03:47:44;11.90;;;6.50;;
34064;SDS011;20339;49.754;20.158;2024-03-02T03:50:18;9.80;;;6.00;;
34064;SDS011;20339;49.754;20.158;2024-03-02T03:52:52;11.50;;;6.00;;
34064;SDS011;20339;49.754;20.158;2024-03-02T03:55:25;9.70;;;5.50;;
34064;SDS011;20339;49.754;20.158;2024-03-02T03:58:01;9.60;;;5.00;;
34064;SDS011;20339;49.754;20.158;2024-03-02T04:00:36;13.50;;;6.20;;
34064;SDS011;20339;49.754;20.158;2024-03-02T04:03:12;11.70;;;6.80;;
34064;SDS011;20339;49.754;20.158;2024-03-02T04:05:43;14.30;;;10.00;;
34064;SDS011;20339;49.754;20.158;2024-03-02T04:08:15;16.00;;;9.00;;
34064;SDS011;20339;49.754;20.158;2024-03-02T04:10:46;9.10;;;5.70;;
34064;SDS011;20339;49.754;20.158;2024-03-02T04:13:18;8.60;;;5.20;;
34064;SDS011;20339;49.754;20.158;2024-03-02T04:15:54;22.60;;;12.70;;
34064;SDS011;20339;49.754;20.158;2024-03-02T04:18:28;16.50;;;9.50;;
34064;SDS011;20339;49.754;20.158;2024-03-02T04:21:04;20.30;;;12.80;;
34064;SDS011;20339;49.754;20.158;2024-03-02T04:23:35;19.20;;;11.50;;
34064;SDS011;20339;49.754;20.158;2024-03-02T04:26:08;31.80;;;20.10;;
34064;SDS011;20339;49.754;20.158;2024-03-02T04:28:40;19.00;;;12.50;;
34064;SDS011;20339;49.754;20.158;2024-03-02T04:31:11;13.90;;;8.50;;
34064;SDS011;20339;49.754;20.158;2024-03-02T04:33:43;15.70;;;10.80;;
34064;SDS011;20339;49.754;20.158;2024-03-02T04:36:24;14.90;;;9.40;;
34064;SDS011;20339;49.754;20.158;2024-03-02T04:38:55;20.00;;;10.60;;
34064;SDS011;20339;49.754;20.158;2024-03-02T04:41:29;18.30;;;11.40;;
34064;SDS011;20339;49.754;20.158;2024-03-02T04:44:00;17.10;;;9.80;;
34064;SDS011;20339;49.754;20.158;2024-03-02T04:46:32;26.20;;;16.50;;
34064;SDS011;20339;49.754;20.158;2024-03-02T04:49:06;15.80;;;7.70;;
34064;SDS011;20339;49.754;20.158;2024-03-02T04:51:39;12.30;;;7.60;;
34064;SDS011;20339;49.754;20.158;2024-03-02T04:54:14;12.60;;;6.50;;
34064;SDS011;20339;49.754;20.158;2024-03-02T04:56:51;11.10;;;6.50;;
34064;SDS011;20339;49.754;20.158;2024-03-02T04:59:25;9.10;;;5.70;;
34064;SDS011;20339;49.754;20.158;2024-03-02T05:02:03;24.70;;;14.10;;
34064;SDS011;20339;49.754;20.158;2024-03-02T05:04:34;35.20;;;17.80;;
34064;SDS011;20339;49.754;20.158;2024-03-02T05:07:09;15.40;;;9.40;;
34064;SDS011;20339;49.754;20.158;2024-03-02T05:09:47;17.20;;;10.40;;
34064;SDS011;20339;49.754;20.158;2024-03-02T05:12:18;19.90;;;10.30;;
34064;SDS011;20339;49.754;20.158;2024-03-02T05:15:18;18.70;;;10.30;;
34064;SDS011;20339;49.754;20.158;2024-03-02T05:17:51;12.30;;;7.90;;
34064;SDS011;20339;49.754;20.158;2024-03-02T05:20:30;18.10;;;9.60;;
34064;SDS011;20339;49.754;20.158;2024-03-02T05:23:08;12.90;;;8.40;;
34064;SDS011;20339;49.754;20.158;2024-03-02T05:25:41;13.00;;;7.40;;
34064;SDS011;20339;49.754;20.158;2024-03-02T05:28:14;12.30;;;7.00;;
34064;SDS011;20339;49.754;20.158;2024-03-02T05:30:47;15.70;;;7.90;;
34064;SDS011;20339;49.754;20.158;2024-03-02T05:33:19;13.90;;;8.20;;
34064;SDS011;20339;49.754;20.158;2024-03-02T05:35:52;13.90;;;7.60;;
34064;SDS011;20339;49.754;20.158;2024-03-02T05:38:23;12.70;;;6.10;;
34064;SDS011;20339;49.754;20.158;2024-03-02T05:40:59;9.70;;;5.40;;
34064;SDS011;20339;49.754;20.158;2024-03-02T05:43:33;11.30;;;5.80;;
34064;SDS011;20339;49.754;20.158;2024-03-02T05:46:07;9.60;;;6.60;;
34064;SDS011;20339;49.754;20.158;2024-03-02T05:48:43;11.40;;;6.90;;
34064;SDS011;20339;49.754;20.158;2024-03-02T05:51:15;11.90;;;7.20;;
34064;SDS011;20339;49.754;20.158;2024-03-02T05:53:48;17.70;;;8.90;;
34064;SDS011;20339;49.754;20.158;2024-03-02T05:56:21;12.40;;;7.30;;
34064;SDS011;20339;49.754;20.158;2024-03-02T05:58:54;11.20;;;5.90;;
34064;SDS011;20339;49.754;20.158;2024-03-02T06:01:37;9.80;;;6.20;;
34064;SDS011;20339;49.754;20.158;2024-03-02T06:04:14;11.70;;;6.00;;
34064;SDS011;20339;49.754;20.158;2024-03-02T06:06:48;12.30;;;7.10;;
34064;SDS011;20339;49.754;20.158;2024-03-02T06:09:22;10.60;;;6.30;;
34064;SDS011;20339;49.754;20.158;2024-03-02T06:11:58;10.50;;;6.80;;
34064;SDS011;20339;49.754;20.158;2024-03-02T06:14:29;11.70;;;7.10;;
34064;SDS011;20339;49.754;20.158;2024-03-02T06:17:11;12.80;;;7.70;;
34064;SDS011;20339;49.754;20.158;2024-03-02T06:19:46;14.20;;;9.70;;
34064;SDS011;20339;49.754;20.158;2024-03-02T06:22:19;13.30;;;7.60;;
34064;SDS011;20339;49.754;20.158;2024-03-02T06:24:53;13.10;;;7.60;;
34064;SDS011;20339;49.754;20.158;2024-03-02T06:27:26;12.90;;;8.00;;
34064;SDS011;20339;49.754;20.158;2024-03-02T06:29:57;18.30;;;9.10;;
34064;SDS011;20339;49.754;20.158;2024-03-02T06:32:35;13.30;;;8.20;;
34064;SDS011;20339;49.754;20.158;2024-03-02T06:35:08;13.20;;;7.90;;
34064;SDS011;20339;49.754;20.158;2024-03-02T06:37:40;11.00;;;6.80;;
34064;SDS011;20339;49.754;20.158;2024-03-02T06:40:19;9.70;;;5.60;;
34064;SDS011;20339;49.754;20.158;2024-03-02T06:42:53;13.30;;;7.60;;
34064;SDS011;20339;49.754;20.158;2024-03-02T06:45:31;16.70;;;9.20;;
34064;SDS011;20339;49.754;20.158;2024-03-02T06:48:06;16.60;;;9.20;;
34064;SDS011;20339;49.754;20.158;2024-03-02T06:50:39;15.80;;;8.10;;
34064;SDS011;20339;49.754;20.158;2024-03-02T06:53:11;17.40;;;9.50;;
34064;SDS011;20339;49.754;20.158;2024-03-02T06:55:41;12.50;;;7.50;;
34064;SDS011;20339;49.754;20.158;2024-03-02T06:58:14;15.10;;;7.90;;
34064;SDS011;20339;49.754;20.158;2024-03-02T07:00:47;14.90;;;8.60;;
34064;SDS011;20339;49.754;20.158;2024-03-02T07:03:23;18.00;;;9.00;;
34064;SDS011;20339;49.754;20.158;2024-03-02T07:05:57;14.50;;;8.30;;
34064;SDS011;20339;49.754;20.158;2024-03-02T07:08:33;11.60;;;7.20;;
34064;SDS011;20339;49.754;20.158;2024-03-02T07:11:04;12.20;;;7.50;;
34064;SDS011;20339;49.754;20.158;2024-03-02T07:13:36;13.80;;;8.40;;
34064;SDS011;20339;49.754;20.158;2024-03-02T07:16:07;14.20;;;8.80;;
34064;SDS011;20339;49.754;20.158;2024-03-02T07:19:00;12.70;;;7.80;;
34064;SDS011;20339;49.754;20.158;2024-03-02T07:21:31;10.90;;;7.70;;
34064;SDS011;20339;49.754;20.158;2024-03-02T07:24:05;12.80;;;7.70;;
34064;SDS011;20339;49.754;20.158;2024-03-02T07:26:43;10.90;;;7.90;;
34064;SDS011;20339;49.754;20.158;2024-03-02T07:29:17;14.10;;;9.30;;
34064;SDS011;20339;49.754;20.158;2024-03-02T07:31:48;11.90;;;8.30;;
34064;SDS011;20339;49.754;20.158;2024-03-02T07:34:22;13.50;;;7.90;;
34064;SDS011;20339;49.754;20.158;2024-03-02T07:36:53;12.70;;;8.60;;
34064;SDS011;20339;49.754;20.158;2024-03-02T07:39:26;14.30;;;8.60;;
34064;SDS011;20339;49.754;20.158;2024-03-02T07:41:59;14.40;;;9.40;;
34064;SDS011;20339;49.754;20.158;2024-03-02T07:44:38;12.10;;;7.80;;
34064;SDS011;20339;49.754;20.158;2024-03-02T07:47:10;11.60;;;7.50;;
34064;SDS011;20339;49.754;20.158;2024-03-02T07:49:45;13.00;;;8.90;;
34064;SDS011;20339;49.754;20.158;2024-03-02T07:52:19;14.10;;;9.30;;
34064;SDS011;20339;49.754;20.158;2024-03-02T07:54:51;14.60;;;9.10;;
34064;SDS011;20339;49.754;20.158;2024-03-02T07:57:24;13.80;;;8.60;;
34064;SDS011;20339;49.754;20.158;2024-03-02T08:00:02;13.20;;;7.90;;
34064;SDS011;20339;49.754;20.158;2024-03-02T08:02:36;12.70;;;9.00;;
34064;SDS011;20339;49.754;20.158;2024-03-02T08:05:12;13.90;;;8.80;;
34064;SDS011;20339;49.754;20.158;2024-03-02T08:07:47;11.70;;;7.70;;
34064;SDS011;20339;49.754;20.158;2024-03-02T08:10:22;12.90;;;6.10;;
34064;SDS011;20339;49.754;20.158;2024-03-02T08:12:53;13.10;;;7.40;;
34064;SDS011;20339;49.754;20.158;2024-03-02T08:15:25;12.90;;;7.30;;
34064;SDS011;20339;49.754;20.158;2024-03-02T08:18:00;11.40;;;7.00;;
34064;SDS011;20339;49.754;20.158;2024-03-02T08:20:35;13.00;;;6.80;;
34064;SDS011;20339;49.754;20.158;2024-03-02T08:23:09;11.70;;;6.80;;
34064;SDS011;20339;49.754;20.158;2024-03-02T08:25:50;12.30;;;8.10;;
34064;SDS011;20339;49.754;20.158;2024-03-02T08:28:21;12.20;;;7.60;;
34064;SDS011;20339;49.754;20.158;2024-03-02T08:30:55;11.00;;;6.60;;
34064;SDS011;20339;49.754;20.158;2024-03-02T08:33:26;14.40;;;8.00;;
34064;SDS011;20339;49.754;20.158;2024-03-02T08:36:00;16.20;;;7.90;;
34064;SDS011;20339;49.754;20.158;2024-03-02T08:38:38;10.40;;;7.10;;
34064;SDS011;20339;49.754;20.158;2024-03-02T08:41:16;15.60;;;9.30;;
34064;SDS011;20339;49.754;20.158;2024-03-02T08:43:49;12.90;;;7.80;;
34064;SDS011;20339;49.754;20.158;2024-03-02T08:46:25;17.30;;;8.60;;
34064;SDS011;20339;49.754;20.158;2024-03-02T08:49:04;11.60;;;7.00;;
34064;SDS011;20339;49.754;20.158;2024-03-02T08:51:43;15.50;;;8.60;;
34064;SDS011;20339;49.754;20.158;2024-03-02T08:54:26;11.90;;;7.80;;
34064;SDS011;20339;49.754;20.158;2024-03-02T08:56:57;11.90;;;7.10;;
34064;SDS011;20339;49.754;20.158;2024-03-02T08:59:29;13.70;;;7.30;;
34064;SDS011;20339;49.754;20.158;2024-03-02T09:02:07;9.30;;;6.40;;
34064;SDS011;20339;49.754;20.158;2024-03-02T09:04:41;13.50;;;7.90;;
34064;SDS011;20339;49.754;20.158;2024-03-02T09:07:18;14.60;;;8.40;;
34064;SDS011;20339;49.754;20.158;2024-03-02T09:09:52;15.50;;;10.20;;
34064;SDS011;20339;49.754;20.158;2024-03-02T09:12:28;20.20;;;10.40;;
34064;SDS011;20339;49.754;20.158;2024-03-02T09:15:03;14.30;;;8.60;;
34064;SDS011;20339;49.754;20.158;2024-03-02T09:17:35;16.40;;;8.60;;
34064;SDS011;20339;49.754;20.158;2024-03-02T09:20:10;13.90;;;9.50;;
34064;SDS011;20339;49.754;20.158;2024-03-02T09:22:43;15.90;;;10.40;;
34064;SDS011;20339;49.754;20.158;2024-03-02T09:25:16;16.90;;;9.70;;
34064;SDS011;20339;49.754;20.158;2024-03-02T09:27:53;15.00;;;9.10;;
34064;SDS011;20339;49.754;20.158;2024-03-02T09:30:29;15.30;;;9.60;;
34064;SDS011;20339;49.754;20.158;2024-03-02T09:33:04;13.90;;;9.30;;
34064;SDS011;20339;49.754;20.158;2024-03-02T09:35:35;14.70;;;8.60;;
34064;SDS011;20339;49.754;20.158;2024-03-02T09:38:06;14.00;;;8.80;;
34064;SDS011;20339;49.754;20.158;2024-03-02T09:40:41;15.20;;;9.60;;
34064;SDS011;20339;49.754;20.158;2024-03-02T09:43:13;17.80;;;11.40;;
34064;SDS011;20339;49.754;20.158;2024-03-02T09:45:50;18.20;;;10.60;;
34064;SDS011;20339;49.754;20.158;2024-03-02T09:48:26;15.00;;;9.90;;
34064;SDS011;20339;49.754;20.158;2024-03-02T09:51:01;14.60;;;10.00;;
34064;SDS011;20339;49.754;20.158;2024-03-02T09:53:36;16.80;;;10.30;;
34064;SDS011;20339;49.754;20.158;2024-03-02T09:56:09;14.80;;;9.20;;
34064;SDS011;20339;49.754;20.158;2024-03-02T09:58:45;12.20;;;7.80;;
34064;SDS011;20339;49.754;20.158;2024-03-02T10:01:19;11.80;;;8.40;;
34064;SDS011;20339;49.754;20.158;2024-03-02T10:03:53;12.50;;;9.20;;
34064;SDS011;20339;49.754;20.158;2024-03-02T10:06:27;14.20;;;9.80;;
34064;SDS011;20339;49.754;20.158;2024-03-02T10:09:02;15.00;;;8.20;;
34064;SDS011;20339;49.754;20.158;2024-03-02T10:11:35;14.10;;;7.90;;
34064;SDS011;20339;49.754;20.158;2024-03-02T10:14:11;12.40;;;7.60;;
34064;SDS011;20339;49.754;20.158;2024-03-02T10:16:45;13.60;;;8.90;;
34064;SDS011;20339;49.754;20.158;2024-03-02T10:19:18;15.10;;;8.50;;
34064;SDS011;20339;49.754;20.158;2024-03-02T10:21:54;17.00;;;8.70;;
34064;SDS011;20339;49.754;20.158;2024-03-02T10:24:36;13.60;;;9.20;;
34064;SDS011;20339;49.754;20.158;2024-03-02T10:27:16;15.20;;;10.20;;
34064;SDS011;20339;49.754;20.158;2024-03-02T10:29:55;16.30;;;9.90;;
34064;SDS011;20339;49.754;20.158;2024-03-02T10:32:28;14.80;;;8.90;;
34064;SDS011;20339;49.754;20.158;2024-03-02T10:35:09;14.50;;;8.60;;
34064;SDS011;20339;49.754;20.158;2024-03-02T10:37:45;14.60;;;9.60;;
34064;SDS011;20339;49.754;20.158;2024-03-02T10:40:19;16.70;;;9.90;;
34064;SDS011;20339;49.754;20.158;2024-03-02T10:43:04;14.90;;;10.10;;
34064;SDS011;20339;49.754;20.158;2024-03-02T10:48:13;16.60;;;10.70;;
34064;SDS011;20339;49.754;20.158;2024-03-02T10:50:50;15.90;;;10.70;;
34064;SDS011;20339;49.754;20.158;2024-03-02T10:53:25;18.60;;;11.70;;
34064;SDS011;20339;49.754;20.158;2024-03-02T10:56:04;16.70;;;11.40;;
34064;SDS011;20339;49.754;20.158;2024-03-02T10:58:49;18.20;;;11.20;;
34064;SDS011;20339;49.754;20.158;2024-03-02T11:01:26;17.20;;;12.20;;
34064;SDS011;20339;49.754;20.158;2024-03-02T11:04:02;18.20;;;12.20;;
34064;SDS011;20339;49.754;20.158;2024-03-02T11:06:44;14.90;;;10.60;;
34064;SDS011;20339;49.754;20.158;2024-03-02T11:09:19;17.30;;;10.70;;
34064;SDS011;20339;49.754;20.158;2024-03-02T11:11:56;15.30;;;10.40;;
34064;SDS011;20339;49.754;20.158;2024-03-02T11:14:34;13.90;;;9.30;;
34064;SDS011;20339;49.754;20.158;2024-03-02T11:17:17;13.20;;;9.10;;
34064;SDS011;20339;49.754;20.158;2024-03-02T11:19:51;27.20;;;18.60;;
34064;SDS011;20339;49.754;20.158;2024-03-02T11:22:23;15.30;;;10.30;;
34064;SDS011;20339;49.754;20.158;2024-03-02T11:24:59;14.40;;;9.70;;
34064;SDS011;20339;49.754;20.158;2024-03-02T11:33:26;13.40;;;8.90;;
34064;SDS011;20339;49.754;20.158;2024-03-02T11:35:58;12.40;;;8.90;;
34064;SDS011;20339;49.754;20.158;2024-03-02T11:38:35;13.60;;;10.00;;
34064;SDS011;20339;49.754;20.158;2024-03-02T11:41:15;17.60;;;12.00;;
34064;SDS011;20339;49.754;20.158;2024-03-02T11:43:48;31.70;;;23.20;;
34064;SDS011;20339;49.754;20.158;2024-03-02T11:46:24;24.50;;;19.60;;
34064;SDS011;20339;49.754;20.158;2024-03-02T11:49:02;20.10;;;16.70;;
34064;SDS011;20339;49.754;20.158;2024-03-02T11:51:35;20.20;;;13.70;;
34064;SDS011;20339;49.754;20.158;2024-03-02T11:54:09;20.70;;;14.90;;
34064;SDS011;20339;49.754;20.158;2024-03-02T11:56:42;21.30;;;16.30;;
34064;SDS011;20339;49.754;20.158;2024-03-02T11:59:14;19.70;;;13.30;;
34064;SDS011;20339;49.754;20.158;2024-03-02T12:01:49;19.30;;;12.70;;
34064;SDS011;20339;49.754;20.158;2024-03-02T12:04:20;18.10;;;13.90;;
34064;SDS011;20339;49.754;20.158;2024-03-02T12:06:55;22.60;;;14.60;;
34064;SDS011;20339;49.754;20.158;2024-03-02T12:09:29;22.50;;;15.10;;
34064;SDS011;20339;49.754;20.158;2024-03-02T12:12:06;18.20;;;13.40;;
34064;SDS011;20339;49.754;20.158;2024-03-02T12:14:38;21.50;;;12.40;;
34064;SDS011;20339;49.754;20.158;2024-03-02T12:17:09;17.90;;;12.30;;
34064;SDS011;20339;49.754;20.158;2024-03-02T12:19:42;20.10;;;13.20;;
34064;SDS011;20339;49.754;20.158;2024-03-02T12:22:14;28.70;;;17.40;;
34064;SDS011;20339;49.754;20.158;2024-03-02T12:24:48;21.10;;;14.80;;
34064;SDS011;20339;49.754;20.158;2024-03-02T12:27:20;27.40;;;18.40;;
34064;SDS011;20339;49.754;20.158;2024-03-02T12:29:52;27.30;;;19.00;;
34064;SDS011;20339;49.754;20.158;2024-03-02T12:32:23;27.90;;;21.20;;
34064;SDS011;20339;49.754;20.158;2024-03-02T12:34:56;38.40;;;28.80;;
34064;SDS011;20339;49.754;20.158;2024-03-02T12:37:30;42.10;;;31.60;;
34064;SDS011;20339;49.754;20.158;2024-03-02T12:40:01;42.40;;;33.30;;
34064;SDS011;20339;49.754;20.158;2024-03-02T12:42:35;41.80;;;32.50;;
34064;SDS011;20339;49.754;20.158;2024-03-02T12:45:07;33.50;;;28.00;;
34064;SDS011;20339;49.754;20.158;2024-03-02T12:47:39;36.50;;;27.60;;
34064;SDS011;20339;49.754;20.158;2024-03-02T12:50:12;31.30;;;25.50;;
34064;SDS011;20339;49.754;20.158;2024-03-02T12:52:44;34.00;;;25.40;;
34064;SDS011;20339;49.754;20.158;2024-03-02T12:55:22;28.50;;;22.90;;
34064;SDS011;20339;49.754;20.158;2024-03-02T12:57:55;29.50;;;23.30;;
34064;SDS011;20339;49.754;20.158;2024-03-02T13:00:34;30.90;;;24.00;;
34064;SDS011;20339;49.754;20.158;2024-03-02T13:03:06;26.70;;;22.00;;
34064;SDS011;20339;49.754;20.158;2024-03-02T13:05:38;31.40;;;23.30;;
34064;SDS011;20339;49.754;20.158;2024-03-02T13:08:11;34.10;;;24.80;;
34064;SDS011;20339;49.754;20.158;2024-03-02T13:10:43;27.30;;;21.20;;
34064;SDS011;20339;49.754;20.158;2024-03-02T13:13:15;35.80;;;23.40;;
34064;SDS011;20339;49.754;20.158;2024-03-02T13:15:46;32.00;;;24.80;;
34064;SDS011;20339;49.754;20.158;2024-03-02T13:18:19;33.10;;;25.40;;
34064;SDS011;20339;49.754;20.158;2024-03-02T13:20:55;33.80;;;24.60;;
34064;SDS011;20339;49.754;20.158;2024-03-02T13:23:28;29.00;;;23.00;;
34064;SDS011;20339;49.754;20.158;2024-03-02T13:26:01;45.90;;;29.80;;
34064;SDS011;20339;49.754;20.158;2024-03-02T13:28:42;37.20;;;29.00;;
34064;SDS011;20339;49.754;20.158;2024-03-02T13:31:14;37.90;;;27.20;;
34064;SDS011;20339;49.754;20.158;2024-03-02T13:33:46;34.70;;;27.50;;
34064;SDS011;20339;49.754;20.158;2024-03-02T13:36:21;38.30;;;28.60;;
34064;SDS011;20339;49.754;20.158;2024-03-02T13:38:55;36.80;;;27.40;;
34064;SDS011;20339;49.754;20.158;2024-03-02T13:41:29;29.90;;;23.80;;
34064;SDS011;20339;49.754;20.158;2024-03-02T13:44:03;29.60;;;22.40;;
34064;SDS011;20339;49.754;20.158;2024-03-02T13:46:35;33.20;;;22.70;;
34064;SDS011;20339;49.754;20.158;2024-03-02T13:49:13;29.60;;;21.80;;
34064;SDS011;20339;49.754;20.158;2024-03-02T13:51:46;29.40;;;23.20;;
34064;SDS011;20339;49.754;20.158;2024-03-02T13:54:23;30.30;;;22.10;;
34064;SDS011;20339;49.754;20.158;2024-03-02T13:56:55;28.70;;;21.60;;
34064;SDS011;20339;49.754;20.158;2024-03-02T13:59:29;48.00;;;33.80;;
34064;SDS011;20339;49.754;20.158;2024-03-02T14:02:04;26.70;;;20.80;;
34064;SDS011;20339;49.754;20.158;2024-03-02T14:04:39;31.10;;;22.50;;
34064;SDS011;20339;49.754;20.158;2024-03-02T14:07:18;29.40;;;19.70;;
34064;SDS011;20339;49.754;20.158;2024-03-02T14:09:49;28.10;;;21.70;;
34064;SDS011;20339;49.754;20.158;2024-03-02T14:12:21;16.30;;;9.70;;
34064;SDS011;20339;49.754;20.158;2024-03-02T14:14:59;10.90;;;7.20;;
34064;SDS011;20339;49.754;20.158;2024-03-02T14:17:31;10.10;;;6.50;;
34064;SDS011;20339;49.754;20.158;2024-03-02T14:20:05;10.30;;;6.30;;
34064;SDS011;20339;49.754;20.158;2024-03-02T14:22:44;8.80;;;6.10;;
34064;SDS011;20339;49.754;20.158;2024-03-02T14:25:16;9.40;;;6.70;;
34064;SDS011;20339;49.754;20.158;2024-03-02T14:27:48;10.40;;;6.40;;
34064;SDS011;20339;49.754;20.158;2024-03-02T14:30:19;11.00;;;6.10;;
34064;SDS011;20339;49.754;20.158;2024-03-02T14:32:51;11.70;;;5.50;;
34064;SDS011;20339;49.754;20.158;2024-03-02T14:35:25;8.20;;;5.70;;
34064;SDS011;20339;49.754;20.158;2024-03-02T14:37:58;9.00;;;6.30;;
34064;SDS011;20339;49.754;20.158;2024-03-02T14:40:30;7.90;;;6.00;;
34064;SDS011;20339;49.754;20.158;2024-03-02T14:43:01;8.00;;;5.10;;
34064;SDS011;20339;49.754;20.158;2024-03-02T14:45:36;9.00;;;5.70;;
34064;SDS011;20339;49.754;20.158;2024-03-02T14:48:07;7.60;;;5.80;;
34064;SDS011;20339;49.754;20.158;2024-03-02T14:50:40;9.30;;;5.70;;
34064;SDS011;20339;49.754;20.158;2024-03-02T14:53:18;8.40;;;5.70;;
34064;SDS011;20339;49.754;20.158;2024-03-02T14:55:51;11.40;;;5.90;;
34064;SDS011;20339;49.754;20.158;2024-03-02T14:58:22;7.20;;;5.00;;
34064;SDS011;20339;49.754;20.158;2024-03-02T15:00:59;8.30;;;5.70;;
34064;SDS011;20339;49.754;20.158;2024-03-02T15:03:30;8.20;;;5.80;;
34064;SDS011;20339;49.754;20.158;2024-03-02T15:06:05;9.40;;;5.80;;
34064;SDS011;20339;49.754;20.158;2024-03-02T15:08:40;10.10;;;5.80;;
34064;SDS011;20339;49.754;20.158;2024-03-02T15:11:14;9.80;;;5.60;;